sensor_id;sensor_type;location;lat;lon;timestamp;P1;durP1;ratioP1;P2;durP2;ratioP2
60494;SDS011;46342;49.046;11.920;2023-04-03T00:02:12;1.40;;;1.30;;
60494;SDS011;46342;49.046;11.920;2023-04-03T00:04:37;1.48;;;1.30;;
60494;SDS011;46342;49.046;11.920;2023-04-03T00:07:03;1.08;;;1.02;;
60494;SDS011;46342;49.046;11.920;2023-04-03T00:09:28;2.05;;;1.65;;
60494;SDS011;46342;49.046;11.920;2023-04-03T00:11:54;1.48;;;1.20;;
60494;SDS011;46342;49.046;11.920;2023-04-03T00:14:19;1.42;;;1.27;;
60494;SDS011;46342;49.046;11.920;2023-04-03T00:16:45;1.90;;;1.23;;
60494;SDS011;46342;49.046;11.920;2023-04-03T00:19:10;1.15;;;1.10;;
60494;SDS011;46342;49.046;11.920;2023-04-03T00:21:37;2.08;;;1.58;;
60494;SDS011;46342;49.046;11.920;2023-04-03T00:24:03;3.38;;;1.38;;
60494;SDS011;46342;49.046;11.920;2023-04-03T00:26:29;1.45;;;1.30;;
60494;SDS011;46342;49.046;11.920;2023-04-03T00:28:54;2.80;;;1.10;;
60494;SDS011;46342;49.046;11.920;2023-04-03T00:31:21;1.83;;;1.30;;
60494;SDS011;46342;49.046;11.920;2023-04-03T00:33:47;1.17;;;1.10;;
60494;SDS011;46342;49.046;11.920;2023-04-03T00:36:12;1.90;;;1.30;;
60494;SDS011;46342;49.046;11.920;2023-04-03T00:38:38;1.50;;;1.40;;
60494;SDS011;46342;49.046;11.920;2023-04-03T00:41:04;1.63;;;1.23;;
60494;SDS011;46342;49.046;11.920;2023-04-03T00:43:30;1.80;;;1.30;;
60494;SDS011;46342;49.046;11.920;2023-04-03T00:45:56;1.33;;;1.23;;
60494;SDS011;46342;49.046;11.920;2023-04-03T00:48:33;3.40;;;1.45;;
60494;SDS011;46342;49.046;11.920;2023-04-03T00:51:03;1.35;;;1.25;;
60494;SDS011;46342;49.046;11.920;2023-04-03T00:53:32;1.50;;;1.20;;
60494;SDS011;46342;49.046;11.920;2023-04-03T00:56:02;1.50;;;1.40;;
60494;SDS011;46342;49.046;11.920;2023-04-03T00:58:35;2.30;;;1.40;;
60494;SDS011;46342;49.046;11.920;2023-04-03T01:01:05;1.50;;;1.40;;
60494;SDS011;46342;49.046;11.920;2023-04-03T01:03:33;1.58;;;1.40;;
60494;SDS011;46342;49.046;11.920;2023-04-03T01:05:58;1.60;;;1.50;;
60494;SDS011;46342;49.046;11.920;2023-04-03T01:08:24;1.40;;;1.30;;
60494;SDS011;46342;49.046;11.920;2023-04-03T01:10:50;1.60;;;1.50;;
60494;SDS011;46342;49.046;11.920;2023-04-03T01:13:24;2.47;;;1.25;;
60494;SDS011;46342;49.046;11.920;2023-04-03T01:15:51;1.48;;;1.10;;
60494;SDS011;46342;49.046;11.920;2023-04-03T01:18:17;1.40;;;1.30;;
60494;SDS011;46342;49.046;11.920;2023-04-03T01:20:46;1.20;;;1.10;;
60494;SDS011;46342;49.046;11.920;2023-04-03T01:26:11;1.38;;;1.15;;
60494;SDS011;46342;49.046;11.920;2023-04-03T01:28:37;1.23;;;1.13;;
60494;SDS011;46342;49.046;11.920;2023-04-03T01:31:15;1.58;;;1.40;;
60494;SDS011;46342;49.046;11.920;2023-04-03T01:33:44;1.30;;;1.20;;
60494;SDS011;46342;49.046;11.920;2023-04-03T01:36:12;1.30;;;1.20;;
60494;SDS011;46342;49.046;11.920;2023-04-03T01:38:40;1.42;;;1.25;;
60494;SDS011;46342;49.046;11.920;2023-04-03T01:41:06;1.40;;;1.30;;
60494;SDS011;46342;49.046;11.920;2023-04-03T01:43:31;2.28;;;1.30;;
60494;SDS011;46342;49.046;11.920;2023-04-03T01:45:57;2.15;;;1.27;;
60494;SDS011;46342;49.046;11.920;2023-04-03T01:48:22;1.35;;;1.25;;
60494;SDS011;46342;49.046;11.920;2023-04-03T01:50:48;1.77;;;1.40;;
60494;SDS011;46342;49.046;11.920;2023-04-03T01:53:14;1.50;;;1.40;;
60494;SDS011;46342;49.046;11.920;2023-04-03T01:55:39;1.60;;;1.20;;
60494;SDS011;46342;49.046;11.920;2023-04-03T01:58:05;1.63;;;1.50;;
60494;SDS011;46342;49.046;11.920;2023-04-03T02:00:30;1.70;;;1.60;;
60494;SDS011;46342;49.046;11.920;2023-04-03T02:02:56;1.10;;;1.00;;
60494;SDS011;46342;49.046;11.920;2023-04-03T02:05:22;1.60;;;1.50;;
60494;SDS011;46342;49.046;11.920;2023-04-03T02:07:47;1.77;;;1.30;;
60494;SDS011;46342;49.046;11.920;2023-04-03T02:10:13;1.60;;;1.30;;
60494;SDS011;46342;49.046;11.920;2023-04-03T02:12:38;1.48;;;1.20;;
60494;SDS011;46342;49.046;11.920;2023-04-03T02:15:04;1.80;;;1.25;;
60494;SDS011;46342;49.046;11.920;2023-04-03T02:17:30;1.33;;;1.23;;
60494;SDS011;46342;49.046;11.920;2023-04-03T02:19:56;1.48;;;1.20;;
60494;SDS011;46342;49.046;11.920;2023-04-03T02:22:21;1.40;;;1.30;;
60494;SDS011;46342;49.046;11.920;2023-04-03T02:24:47;1.98;;;1.33;;
60494;SDS011;46342;49.046;11.920;2023-04-03T02:27:12;1.40;;;1.30;;
60494;SDS011;46342;49.046;11.920;2023-04-03T02:29:38;1.40;;;1.20;;
60494;SDS011;46342;49.046;11.920;2023-04-03T02:32:04;1.65;;;1.30;;
60494;SDS011;46342;49.046;11.920;2023-04-03T02:34:30;1.73;;;1.42;;
60494;SDS011;46342;49.046;11.920;2023-04-03T02:36:55;1.40;;;1.30;;
60494;SDS011;46342;49.046;11.920;2023-04-03T02:39:21;1.27;;;1.17;;
60494;SDS011;46342;49.046;11.920;2023-04-03T02:41:46;1.45;;;1.20;;
60494;SDS011;46342;49.046;11.920;2023-04-03T02:44:12;1.40;;;1.30;;
60494;SDS011;46342;49.046;11.920;2023-04-03T02:46:38;2.97;;;1.40;;
60494;SDS011;46342;49.046;11.920;2023-04-03T02:49:03;1.60;;;1.40;;
60494;SDS011;46342;49.046;11.920;2023-04-03T02:51:29;1.73;;;1.40;;
60494;SDS011;46342;49.046;11.920;2023-04-03T02:53:55;1.38;;;1.27;;
60494;SDS011;46342;49.046;11.920;2023-04-03T02:56:21;1.63;;;1.50;;
60494;SDS011;46342;49.046;11.920;2023-04-03T02:58:47;1.80;;;1.40;;
60494;SDS011;46342;49.046;11.920;2023-04-03T03:01:13;1.23;;;1.13;;
60494;SDS011;46342;49.046;11.920;2023-04-03T03:03:39;1.60;;;1.50;;
60494;SDS011;46342;49.046;11.920;2023-04-03T03:06:06;1.38;;;1.27;;
60494;SDS011;46342;49.046;11.920;2023-04-03T03:08:33;1.50;;;1.40;;
60494;SDS011;46342;49.046;11.920;2023-04-03T03:11:00;1.50;;;1.40;;
60494;SDS011;46342;49.046;11.920;2023-04-03T03:13:25;1.65;;;1.30;;
60494;SDS011;46342;49.046;11.920;2023-04-03T03:15:51;1.33;;;1.20;;
60494;SDS011;46342;49.046;11.920;2023-04-03T03:18:17;1.50;;;1.40;;
60494;SDS011;46342;49.046;11.920;2023-04-03T03:20:43;1.77;;;1.33;;
60494;SDS011;46342;49.046;11.920;2023-04-03T03:23:09;1.45;;;1.35;;
60494;SDS011;46342;49.046;11.920;2023-04-03T03:25:38;1.83;;;1.30;;
60494;SDS011;46342;49.046;11.920;2023-04-03T03:28:05;1.45;;;1.35;;
60494;SDS011;46342;49.046;11.920;2023-04-03T03:30:31;1.20;;;1.10;;
60494;SDS011;46342;49.046;11.920;2023-04-03T03:32:56;2.45;;;1.33;;
60494;SDS011;46342;49.046;11.920;2023-04-03T03:35:22;1.52;;;1.33;;
60494;SDS011;46342;49.046;11.920;2023-04-03T03:37:48;1.33;;;1.23;;
60494;SDS011;46342;49.046;11.920;2023-04-03T03:40:13;2.03;;;1.38;;
60494;SDS011;46342;49.046;11.920;2023-04-03T03:42:39;1.30;;;1.20;;
60494;SDS011;46342;49.046;11.920;2023-04-03T03:45:05;1.45;;;1.35;;
60494;SDS011;46342;49.046;11.920;2023-04-03T03:47:31;1.50;;;1.17;;
60494;SDS011;46342;49.046;11.920;2023-04-03T03:49:57;1.67;;;1.58;;
60494;SDS011;46342;49.046;11.920;2023-04-03T03:52:22;1.30;;;1.20;;
60494;SDS011;46342;49.046;11.920;2023-04-03T03:54:48;1.63;;;1.27;;
60494;SDS011;46342;49.046;11.920;2023-04-03T03:57:14;1.38;;;1.27;;
60494;SDS011;46342;49.046;11.920;2023-04-03T03:59:40;1.38;;;1.08;;
60494;SDS011;46342;49.046;11.920;2023-04-03T04:02:06;1.63;;;1.30;;
60494;SDS011;46342;49.046;11.920;2023-04-03T04:04:32;1.52;;;1.40;;
60494;SDS011;46342;49.046;11.920;2023-04-03T04:06:58;1.25;;;1.15;;
60494;SDS011;46342;49.046;11.920;2023-04-03T04:09:25;2.13;;;1.40;;
60494;SDS011;46342;49.046;11.920;2023-04-03T04:11:51;2.05;;;1.40;;
60494;SDS011;46342;49.046;11.920;2023-04-03T04:14:17;1.67;;;1.33;;
60494;SDS011;46342;49.046;11.920;2023-04-03T04:16:45;2.40;;;1.40;;
60494;SDS011;46342;49.046;11.920;2023-04-03T04:19:11;1.27;;;1.17;;
60494;SDS011;46342;49.046;11.920;2023-04-03T04:21:37;1.25;;;1.15;;
60494;SDS011;46342;49.046;11.920;2023-04-03T04:24:02;1.38;;;1.27;;
60494;SDS011;46342;49.046;11.920;2023-04-03T04:26:28;1.75;;;1.50;;
60494;SDS011;46342;49.046;11.920;2023-04-03T04:28:53;1.42;;;1.20;;
60494;SDS011;46342;49.046;11.920;2023-04-03T04:31:19;2.30;;;1.30;;
60494;SDS011;46342;49.046;11.920;2023-04-03T04:33:44;1.77;;;1.50;;
60494;SDS011;46342;49.046;11.920;2023-04-03T04:36:10;1.20;;;1.10;;
60494;SDS011;46342;49.046;11.920;2023-04-03T04:38:36;1.40;;;1.30;;
60494;SDS011;46342;49.046;11.920;2023-04-03T04:41:01;1.60;;;1.40;;
60494;SDS011;46342;49.046;11.920;2023-04-03T04:43:27;1.50;;;1.40;;
60494;SDS011;46342;49.046;11.920;2023-04-03T04:46:05;1.05;;;1.05;;
60494;SDS011;46342;49.046;11.920;2023-04-03T04:48:33;2.20;;;1.35;;
60494;SDS011;46342;49.046;11.920;2023-04-03T04:50:59;2.42;;;1.38;;
60494;SDS011;46342;49.046;11.920;2023-04-03T04:53:25;1.20;;;1.10;;
60494;SDS011;46342;49.046;11.920;2023-04-03T04:55:51;1.75;;;1.25;;
60494;SDS011;46342;49.046;11.920;2023-04-03T04:58:17;1.98;;;1.40;;
60494;SDS011;46342;49.046;11.920;2023-04-03T05:00:42;1.20;;;1.15;;
60494;SDS011;46342;49.046;11.920;2023-04-03T05:03:08;1.85;;;1.40;;
60494;SDS011;46342;49.046;11.920;2023-04-03T05:05:34;2.90;;;1.20;;
60494;SDS011;46342;49.046;11.920;2023-04-03T05:08:00;1.40;;;1.30;;
60494;SDS011;46342;49.046;11.920;2023-04-03T05:10:27;1.88;;;1.60;;
60494;SDS011;46342;49.046;11.920;2023-04-03T05:12:52;1.60;;;1.50;;
60494;SDS011;46342;49.046;11.920;2023-04-03T05:15:18;1.58;;;1.38;;
60494;SDS011;46342;49.046;11.920;2023-04-03T05:17:44;1.38;;;1.27;;
60494;SDS011;46342;49.046;11.920;2023-04-03T05:20:10;1.20;;;1.10;;
60494;SDS011;46342;49.046;11.920;2023-04-03T05:22:36;2.38;;;1.63;;
60494;SDS011;46342;49.046;11.920;2023-04-03T05:25:01;1.75;;;1.52;;
60494;SDS011;46342;49.046;11.920;2023-04-03T05:27:27;2.17;;;1.75;;
60494;SDS011;46342;49.046;11.920;2023-04-03T05:29:53;1.60;;;1.50;;
60494;SDS011;46342;49.046;11.920;2023-04-03T05:32:20;2.40;;;1.42;;
60494;SDS011;46342;49.046;11.920;2023-04-03T05:34:46;2.30;;;1.63;;
60494;SDS011;46342;49.046;11.920;2023-04-03T05:37:11;1.75;;;1.30;;
60494;SDS011;46342;49.046;11.920;2023-04-03T05:39:37;1.60;;;1.45;;
60494;SDS011;46342;49.046;11.920;2023-04-03T05:44:31;2.15;;;1.50;;
60494;SDS011;46342;49.046;11.920;2023-04-03T05:46:56;1.88;;;1.30;;
60494;SDS011;46342;49.046;11.920;2023-04-03T05:49:22;1.63;;;1.35;;
60494;SDS011;46342;49.046;11.920;2023-04-03T05:51:47;1.85;;;1.42;;
60494;SDS011;46342;49.046;11.920;2023-04-03T05:54:15;1.70;;;1.40;;
60494;SDS011;46342;49.046;11.920;2023-04-03T05:56:48;1.52;;;1.42;;
60494;SDS011;46342;49.046;11.920;2023-04-03T05:59:14;2.25;;;1.42;;
60494;SDS011;46342;49.046;11.920;2023-04-03T06:01:40;2.05;;;1.50;;
60494;SDS011;46342;49.046;11.920;2023-04-03T06:04:05;2.17;;;1.60;;
60494;SDS011;46342;49.046;11.920;2023-04-03T06:06:47;1.85;;;1.60;;
60494;SDS011;46342;49.046;11.920;2023-04-03T06:09:22;1.90;;;1.40;;
60494;SDS011;46342;49.046;11.920;2023-04-03T06:11:50;1.88;;;1.52;;
60494;SDS011;46342;49.046;11.920;2023-04-03T06:14:17;1.40;;;1.02;;
60494;SDS011;46342;49.046;11.920;2023-04-03T06:16:42;1.88;;;1.50;;
60494;SDS011;46342;49.046;11.920;2023-04-03T06:19:08;2.03;;;1.48;;
60494;SDS011;46342;49.046;11.920;2023-04-03T06:21:35;1.77;;;1.60;;
60494;SDS011;46342;49.046;11.920;2023-04-03T06:24:01;1.63;;;1.50;;
60494;SDS011;46342;49.046;11.920;2023-04-03T06:26:28;3.20;;;1.67;;
60494;SDS011;46342;49.046;11.920;2023-04-03T06:28:53;2.63;;;1.58;;
60494;SDS011;46342;49.046;11.920;2023-04-03T06:31:19;1.85;;;1.60;;
60494;SDS011;46342;49.046;11.920;2023-04-03T06:33:45;1.80;;;1.70;;
60494;SDS011;46342;49.046;11.920;2023-04-03T06:36:11;1.73;;;1.40;;
60494;SDS011;46342;49.046;11.920;2023-04-03T06:38:37;2.70;;;1.80;;
60494;SDS011;46342;49.046;11.920;2023-04-03T06:41:02;2.20;;;1.50;;
60494;SDS011;46342;49.046;11.920;2023-04-03T06:43:28;1.98;;;1.60;;
60494;SDS011;46342;49.046;11.920;2023-04-03T06:45:56;1.50;;;1.40;;
60494;SDS011;46342;49.046;11.920;2023-04-03T06:48:22;1.92;;;1.60;;
60494;SDS011;46342;49.046;11.920;2023-04-03T06:50:47;1.50;;;1.40;;
60494;SDS011;46342;49.046;11.920;2023-04-03T06:53:13;5.63;;;2.10;;
60494;SDS011;46342;49.046;11.920;2023-04-03T06:55:39;1.73;;;1.50;;
60494;SDS011;46342;49.046;11.920;2023-04-03T06:58:06;2.05;;;1.80;;
60494;SDS011;46342;49.046;11.920;2023-04-03T07:00:31;2.50;;;1.98;;
60494;SDS011;46342;49.046;11.920;2023-04-03T07:02:57;2.28;;;1.73;;
60494;SDS011;46342;49.046;11.920;2023-04-03T07:05:24;3.35;;;1.98;;
60494;SDS011;46342;49.046;11.920;2023-04-03T07:07:50;2.47;;;1.80;;
60494;SDS011;46342;49.046;11.920;2023-04-03T07:10:16;1.92;;;1.58;;
60494;SDS011;46342;49.046;11.920;2023-04-03T07:12:42;2.53;;;1.58;;
60494;SDS011;46342;49.046;11.920;2023-04-03T07:15:08;2.67;;;1.92;;
60494;SDS011;46342;49.046;11.920;2023-04-03T07:17:34;1.92;;;1.60;;
60494;SDS011;46342;49.046;11.920;2023-04-03T07:20:00;2.22;;;1.75;;
60494;SDS011;46342;49.046;11.920;2023-04-03T07:22:26;2.28;;;1.70;;
60494;SDS011;46342;49.046;11.920;2023-04-03T07:24:52;2.67;;;1.92;;
60494;SDS011;46342;49.046;11.920;2023-04-03T07:27:18;2.75;;;1.60;;
60494;SDS011;46342;49.046;11.920;2023-04-03T07:29:43;2.22;;;1.83;;
60494;SDS011;46342;49.046;11.920;2023-04-03T07:32:09;3.78;;;1.70;;
60494;SDS011;46342;49.046;11.920;2023-04-03T07:34:35;1.88;;;1.60;;
60494;SDS011;46342;49.046;11.920;2023-04-03T07:37:01;2.17;;;1.98;;
60494;SDS011;46342;49.046;11.920;2023-04-03T07:39:28;1.83;;;1.70;;
60494;SDS011;46342;49.046;11.920;2023-04-03T07:41:54;2.03;;;1.80;;
60494;SDS011;46342;49.046;11.920;2023-04-03T07:44:21;1.92;;;1.70;;
60494;SDS011;46342;49.046;11.920;2023-04-03T07:46:47;2.47;;;2.08;;
60494;SDS011;46342;49.046;11.920;2023-04-03T07:49:13;2.65;;;1.73;;
60494;SDS011;46342;49.046;11.920;2023-04-03T07:51:39;2.00;;;1.80;;
60494;SDS011;46342;49.046;11.920;2023-04-03T07:54:05;2.58;;;1.58;;
60494;SDS011;46342;49.046;11.920;2023-04-03T07:56:31;2.10;;;1.80;;
60494;SDS011;46342;49.046;11.920;2023-04-03T07:58:57;1.63;;;1.52;;
60494;SDS011;46342;49.046;11.920;2023-04-03T08:01:22;1.65;;;1.55;;
60494;SDS011;46342;49.046;11.920;2023-04-03T08:03:48;1.70;;;1.52;;
60494;SDS011;46342;49.046;11.920;2023-04-03T08:06:13;2.45;;;2.00;;
60494;SDS011;46342;49.046;11.920;2023-04-03T08:08:40;2.78;;;1.90;;
60494;SDS011;46342;49.046;11.920;2023-04-03T08:11:06;2.28;;;1.73;;
60494;SDS011;46342;49.046;11.920;2023-04-03T08:13:33;3.42;;;1.73;;
60494;SDS011;46342;49.046;11.920;2023-04-03T08:16:08;1.85;;;1.65;;
60494;SDS011;46342;49.046;11.920;2023-04-03T08:18:36;1.90;;;1.80;;
60494;SDS011;46342;49.046;11.920;2023-04-03T08:21:04;2.92;;;1.90;;
60494;SDS011;46342;49.046;11.920;2023-04-03T08:23:31;2.20;;;1.60;;
60494;SDS011;46342;49.046;11.920;2023-04-03T08:25:56;2.55;;;1.50;;
60494;SDS011;46342;49.046;11.920;2023-04-03T08:28:22;2.47;;;1.70;;
60494;SDS011;46342;49.046;11.920;2023-04-03T08:30:48;6.78;;;1.50;;
60494;SDS011;46342;49.046;11.920;2023-04-03T08:33:13;3.55;;;1.35;;
60494;SDS011;46342;49.046;11.920;2023-04-03T08:35:39;2.75;;;1.42;;
60494;SDS011;46342;49.046;11.920;2023-04-03T08:38:06;2.10;;;1.80;;
60494;SDS011;46342;49.046;11.920;2023-04-03T08:40:32;2.60;;;1.48;;
60494;SDS011;46342;49.046;11.920;2023-04-03T08:45:50;1.50;;;1.38;;
60494;SDS011;46342;49.046;11.920;2023-04-03T08:50:50;1.70;;;1.30;;
60494;SDS011;46342;49.046;11.920;2023-04-03T08:53:25;1.48;;;1.15;;
60494;SDS011;46342;49.046;11.920;2023-04-03T08:55:53;1.85;;;1.27;;
60494;SDS011;46342;49.046;11.920;2023-04-03T08:58:24;1.48;;;1.20;;
60494;SDS011;46342;49.046;11.920;2023-04-03T09:03:32;1.17;;;1.02;;
60494;SDS011;46342;49.046;11.920;2023-04-03T09:08:43;2.05;;;0.90;;
60494;SDS011;46342;49.046;11.920;2023-04-03T09:17:14;1.20;;;0.90;;
60494;SDS011;46342;49.046;11.920;2023-04-03T09:22:38;1.35;;;0.90;;
60494;SDS011;46342;49.046;11.920;2023-04-03T09:27:51;1.10;;;0.90;;
60494;SDS011;46342;49.046;11.920;2023-04-03T09:30:21;1.08;;;0.85;;
60494;SDS011;46342;49.046;11.920;2023-04-03T09:32:49;2.53;;;1.00;;
60494;SDS011;46342;49.046;11.920;2023-04-03T09:35:23;0.60;;;0.60;;
60494;SDS011;46342;49.046;11.920;2023-04-03T09:37:59;1.75;;;0.80;;
60494;SDS011;46342;49.046;11.920;2023-04-03T09:40:38;0.80;;;0.80;;
60494;SDS011;46342;49.046;11.920;2023-04-03T09:45:48;1.17;;;1.02;;
60494;SDS011;46342;49.046;11.920;2023-04-03T09:51:04;1.25;;;0.73;;
60494;SDS011;46342;49.046;11.920;2023-04-03T09:56:01;1.50;;;0.90;;
60494;SDS011;46342;49.046;11.920;2023-04-03T10:04:06;0.80;;;0.80;;
60494;SDS011;46342;49.046;11.920;2023-04-03T10:14:39;0.93;;;0.80;;
60494;SDS011;46342;49.046;11.920;2023-04-03T10:22:57;0.88;;;0.65;;
60494;SDS011;46342;49.046;11.920;2023-04-03T10:28:23;0.80;;;0.80;;
60494;SDS011;46342;49.046;11.920;2023-04-03T10:33:50;0.85;;;0.75;;
60494;SDS011;46342;49.046;11.920;2023-04-03T10:39:45;0.90;;;0.70;;
60494;SDS011;46342;49.046;11.920;2023-04-03T10:47:35;0.60;;;0.60;;
60494;SDS011;46342;49.046;11.920;2023-04-03T10:58:29;0.65;;;0.65;;
60494;SDS011;46342;49.046;11.920;2023-04-03T11:01:01;1.73;;;0.90;;
60494;SDS011;46342;49.046;11.920;2023-04-03T11:03:36;0.80;;;0.80;;
60494;SDS011;46342;49.046;11.920;2023-04-03T11:06:07;1.90;;;0.65;;
60494;SDS011;46342;49.046;11.920;2023-04-03T11:08:37;1.75;;;0.80;;
60494;SDS011;46342;49.046;11.920;2023-04-03T11:11:09;3.40;;;1.13;;
60494;SDS011;46342;49.046;11.920;2023-04-03T11:16:30;1.55;;;0.90;;
60494;SDS011;46342;49.046;11.920;2023-04-03T11:22:32;0.75;;;0.75;;
60494;SDS011;46342;49.046;11.920;2023-04-03T11:24:31;1.40;;;0.85;;
60494;SDS011;46342;49.046;11.920;2023-04-03T11:26:59;0.73;;;0.73;;
60494;SDS011;46342;49.046;11.920;2023-04-03T11:29:31;0.63;;;0.63;;
60494;SDS011;46342;49.046;11.920;2023-04-03T11:32:13;1.67;;;1.20;;
60494;SDS011;46342;49.046;11.920;2023-04-03T11:34:55;0.82;;;0.75;;
60494;SDS011;46342;49.046;11.920;2023-04-03T11:40:06;1.00;;;0.70;;
60494;SDS011;46342;49.046;11.920;2023-04-03T11:42:40;1.10;;;0.90;;
60494;SDS011;46342;49.046;11.920;2023-04-03T11:47:50;1.38;;;0.70;;
60494;SDS011;46342;49.046;11.920;2023-04-03T12:05:53;0.82;;;0.82;;
60494;SDS011;46342;49.046;11.920;2023-04-03T12:16:21;0.73;;;0.73;;
60494;SDS011;46342;49.046;11.920;2023-04-03T12:24:05;0.80;;;0.68;;
60494;SDS011;46342;49.046;11.920;2023-04-03T12:29:59;1.58;;;1.00;;
60494;SDS011;46342;49.046;11.920;2023-04-03T12:40:57;1.60;;;0.80;;
60494;SDS011;46342;49.046;11.920;2023-04-03T12:46:03;0.80;;;0.80;;
60494;SDS011;46342;49.046;11.920;2023-04-03T12:48:56;2.10;;;0.90;;
60494;SDS011;46342;49.046;11.920;2023-04-03T12:54:02;2.95;;;1.00;;
60494;SDS011;46342;49.046;11.920;2023-04-03T12:56:38;2.47;;;0.90;;
60494;SDS011;46342;49.046;11.920;2023-04-03T12:59:23;1.40;;;0.90;;
60494;SDS011;46342;49.046;11.920;2023-04-03T13:01:58;1.00;;;0.90;;
60494;SDS011;46342;49.046;11.920;2023-04-03T13:04:25;0.80;;;0.80;;
60494;SDS011;46342;49.046;11.920;2023-04-03T13:06:53;1.85;;;0.90;;
60494;SDS011;46342;49.046;11.920;2023-04-03T13:12:07;0.65;;;0.63;;
60494;SDS011;46342;49.046;11.920;2023-04-03T13:14:39;0.93;;;0.77;;
60494;SDS011;46342;49.046;11.920;2023-04-03T13:17:16;1.05;;;0.85;;
60494;SDS011;46342;49.046;11.920;2023-04-03T13:19:43;1.08;;;0.77;;
60494;SDS011;46342;49.046;11.920;2023-04-03T13:24:50;0.70;;;0.70;;
60494;SDS011;46342;49.046;11.920;2023-04-03T13:27:16;0.87;;;0.80;;
60494;SDS011;46342;49.046;11.920;2023-04-03T13:29:43;0.80;;;0.77;;
60494;SDS011;46342;49.046;11.920;2023-04-03T13:32:17;1.85;;;0.80;;
60494;SDS011;46342;49.046;11.920;2023-04-03T13:34:48;1.08;;;0.73;;
60494;SDS011;46342;49.046;11.920;2023-04-03T13:40:02;1.90;;;0.85;;
60494;SDS011;46342;49.046;11.920;2023-04-03T13:42:37;0.90;;;0.70;;
60494;SDS011;46342;49.046;11.920;2023-04-03T13:45:17;2.92;;;1.10;;
60494;SDS011;46342;49.046;11.920;2023-04-03T13:47:51;0.80;;;0.70;;
60494;SDS011;46342;49.046;11.920;2023-04-03T13:50:24;1.10;;;0.70;;
60494;SDS011;46342;49.046;11.920;2023-04-03T13:53:01;0.70;;;0.70;;
60494;SDS011;46342;49.046;11.920;2023-04-03T13:55:50;0.88;;;0.77;;
60494;SDS011;46342;49.046;11.920;2023-04-03T13:58:22;1.00;;;1.00;;
60494;SDS011;46342;49.046;11.920;2023-04-03T14:00:53;1.25;;;0.90;;
60494;SDS011;46342;49.046;11.920;2023-04-03T14:06:18;1.30;;;0.80;;
60494;SDS011;46342;49.046;11.920;2023-04-03T14:08:45;1.38;;;0.90;;
60494;SDS011;46342;49.046;11.920;2023-04-03T14:11:16;1.08;;;0.88;;
60494;SDS011;46342;49.046;11.920;2023-04-03T14:13:45;1.67;;;0.77;;
60494;SDS011;46342;49.046;11.920;2023-04-03T14:16:13;1.10;;;1.00;;
60494;SDS011;46342;49.046;11.920;2023-04-03T14:18:41;1.15;;;0.80;;
60494;SDS011;46342;49.046;11.920;2023-04-03T14:21:09;2.25;;;1.10;;
60494;SDS011;46342;49.046;11.920;2023-04-03T14:23:37;1.05;;;0.80;;
60494;SDS011;46342;49.046;11.920;2023-04-03T14:26:04;0.98;;;0.60;;
60494;SDS011;46342;49.046;11.920;2023-04-03T14:28:34;0.90;;;0.90;;
60494;SDS011;46342;49.046;11.920;2023-04-03T14:31:00;1.40;;;1.10;;
60494;SDS011;46342;49.046;11.920;2023-04-03T14:33:26;3.63;;;1.00;;
60494;SDS011;46342;49.046;11.920;2023-04-03T14:35:52;0.80;;;0.80;;
60494;SDS011;46342;49.046;11.920;2023-04-03T14:38:23;1.52;;;1.17;;
60494;SDS011;46342;49.046;11.920;2023-04-03T14:40:51;2.97;;;0.90;;
60494;SDS011;46342;49.046;11.920;2023-04-03T14:43:17;1.08;;;0.90;;
60494;SDS011;46342;49.046;11.920;2023-04-03T14:45:43;1.63;;;1.15;;
60494;SDS011;46342;49.046;11.920;2023-04-03T14:48:12;1.48;;;1.35;;
60494;SDS011;46342;49.046;11.920;2023-04-03T14:50:43;1.30;;;1.13;;
60494;SDS011;46342;49.046;11.920;2023-04-03T14:53:10;1.00;;;0.90;;
60494;SDS011;46342;49.046;11.920;2023-04-03T14:55:36;1.13;;;1.00;;
60494;SDS011;46342;49.046;11.920;2023-04-03T14:58:02;0.80;;;0.80;;
60494;SDS011;46342;49.046;11.920;2023-04-03T15:00:28;0.93;;;0.88;;
60494;SDS011;46342;49.046;11.920;2023-04-03T15:02:53;1.00;;;0.88;;
60494;SDS011;46342;49.046;11.920;2023-04-03T15:05:19;1.45;;;1.10;;
60494;SDS011;46342;49.046;11.920;2023-04-03T15:08:03;1.10;;;0.93;;
60494;SDS011;46342;49.046;11.920;2023-04-03T15:10:29;1.58;;;0.90;;
60494;SDS011;46342;49.046;11.920;2023-04-03T15:12:56;1.15;;;0.93;;
60494;SDS011;46342;49.046;11.920;2023-04-03T15:15:22;0.88;;;0.73;;
60494;SDS011;46342;49.046;11.920;2023-04-03T15:17:52;1.27;;;0.80;;
60494;SDS011;46342;49.046;11.920;2023-04-03T15:20:22;1.17;;;0.65;;
60494;SDS011;46342;49.046;11.920;2023-04-03T15:22:49;1.00;;;0.90;;
60494;SDS011;46342;49.046;11.920;2023-04-03T15:25:15;0.65;;;0.65;;
60494;SDS011;46342;49.046;11.920;2023-04-03T15:27:41;0.90;;;0.90;;
60494;SDS011;46342;49.046;11.920;2023-04-03T15:30:08;0.80;;;0.80;;
60494;SDS011;46342;49.046;11.920;2023-04-03T15:32:38;0.88;;;0.77;;
60494;SDS011;46342;49.046;11.920;2023-04-03T15:35:03;3.20;;;0.90;;
60494;SDS011;46342;49.046;11.920;2023-04-03T15:37:29;1.52;;;0.95;;
60494;SDS011;46342;49.046;11.920;2023-04-03T15:39:55;1.10;;;1.00;;
60494;SDS011;46342;49.046;11.920;2023-04-03T15:42:20;1.85;;;1.10;;
60494;SDS011;46342;49.046;11.920;2023-04-03T15:44:46;1.17;;;0.85;;
60494;SDS011;46342;49.046;11.920;2023-04-03T15:47:12;0.90;;;0.73;;
60494;SDS011;46342;49.046;11.920;2023-04-03T15:49:37;1.00;;;0.90;;
60494;SDS011;46342;49.046;11.920;2023-04-03T15:52:03;1.00;;;0.90;;
60494;SDS011;46342;49.046;11.920;2023-04-03T15:54:29;1.17;;;1.05;;
60494;SDS011;46342;49.046;11.920;2023-04-03T15:56:55;0.80;;;0.80;;
60494;SDS011;46342;49.046;11.920;2023-04-03T15:59:21;1.52;;;0.90;;
60494;SDS011;46342;49.046;11.920;2023-04-03T16:01:47;1.65;;;0.90;;
60494;SDS011;46342;49.046;11.920;2023-04-03T16:04:13;1.70;;;0.88;;
60494;SDS011;46342;49.046;11.920;2023-04-03T16:06:39;1.55;;;1.00;;
60494;SDS011;46342;49.046;11.920;2023-04-03T16:09:05;1.98;;;0.77;;
60494;SDS011;46342;49.046;11.920;2023-04-03T16:11:32;1.40;;;0.80;;
60494;SDS011;46342;49.046;11.920;2023-04-03T16:13:59;1.17;;;0.88;;
60494;SDS011;46342;49.046;11.920;2023-04-03T16:16:25;2.15;;;0.90;;
60494;SDS011;46342;49.046;11.920;2023-04-03T16:18:52;1.88;;;1.20;;
60494;SDS011;46342;49.046;11.920;2023-04-03T16:21:20;0.85;;;0.85;;
60494;SDS011;46342;49.046;11.920;2023-04-03T16:23:46;3.03;;;1.05;;
60494;SDS011;46342;49.046;11.920;2023-04-03T16:26:11;2.63;;;1.27;;
60494;SDS011;46342;49.046;11.920;2023-04-03T16:28:38;0.90;;;0.90;;
60494;SDS011;46342;49.046;11.920;2023-04-03T16:31:03;1.05;;;0.95;;
60494;SDS011;46342;49.046;11.920;2023-04-03T16:33:31;0.80;;;0.80;;
60494;SDS011;46342;49.046;11.920;2023-04-03T16:35:57;1.20;;;1.10;;
60494;SDS011;46342;49.046;11.920;2023-04-03T16:38:23;3.65;;;1.38;;
60494;SDS011;46342;49.046;11.920;2023-04-03T16:40:48;1.90;;;1.20;;
60494;SDS011;46342;49.046;11.920;2023-04-03T16:43:15;2.15;;;1.10;;
60494;SDS011;46342;49.046;11.920;2023-04-03T16:45:41;1.55;;;0.90;;
60494;SDS011;46342;49.046;11.920;2023-04-03T16:48:07;0.85;;;0.80;;
60494;SDS011;46342;49.046;11.920;2023-04-03T16:50:32;0.80;;;0.80;;
60494;SDS011;46342;49.046;11.920;2023-04-03T16:52:58;2.50;;;1.10;;
60494;SDS011;46342;49.046;11.920;2023-04-03T16:55:24;1.30;;;1.20;;
60494;SDS011;46342;49.046;11.920;2023-04-03T16:57:49;2.95;;;1.20;;
60494;SDS011;46342;49.046;11.920;2023-04-03T17:00:15;1.20;;;1.10;;
60494;SDS011;46342;49.046;11.920;2023-04-03T17:02:41;1.65;;;0.95;;